Time;durP1;ratioP1;P1;durP2;ratioP2;P2;SDS_P1;SDS_P2;PMS_P1;PMS_P2;Temp;Humidity;BMP_temperature;BMP_pressure;BME280_temperature;BME280_humidity;BME280_pressure;Samples;Min_cycle;Max_cycle;Signal;HPM_P1;HPM_P2
2023/06/19 00:01:28;;;;;;;14.73;9.98;;;;;;;;;;6266838;28;20044;-86
2023/06/19 00:04:28;;;;;;;17.38;10.77;;;;;;;;;;6270323;28;20029;-86
2023/06/19 00:07:28;;;;;;;16.40;12.20;;;;;;;;;;6270592;28;20029;-87
2023/06/19 00:10:28;;;;;;;16.13;10.60;;;;;;;;;;6270591;28;20259;-87
2023/06/19 00:13:28;;;;;;;17.40;12.10;;;;;;;;;;6270321;28;20056;-87
2023/06/19 00:16:29;;;;;;;16.27;11.07;;;;;;;;;;6270139;28;20428;-84
2023/06/19 00:19:29;;;;;;;17.15;11.43;;;;;;;;;;6268619;28;20021;-85
2023/06/19 00:22:29;;;;;;;17.47;10.87;;;;;;;;;;6270514;28;20467;-85
2023/06/19 00:25:29;;;;;;;15.98;11.88;;;;;;;;;;6273471;28;20020;-86
2023/06/19 00:28:30;;;;;;;17.45;11.40;;;;;;;;;;6271185;28;20016;-80
2023/06/19 00:31:30;;;;;;;14.80;11.20;;;;;;;;;;6276217;28;20627;-74
2023/06/19 00:34:31;;;;;;;16.53;10.77;;;;;;;;;;6276678;28;20013;-74
2023/06/19 00:37:32;;;;;;;16.13;10.30;;;;;;;;;;6270964;28;20103;-74
2023/06/19 00:40:32;;;;;;;15.90;10.60;;;;;;;;;;6273403;28;20052;-75
2023/06/19 00:43:33;;;;;;;16.65;11.68;;;;;;;;;;6273956;28;20020;-74
2023/06/19 00:46:35;;;;;;;15.93;10.97;;;;;;;;;;6273421;28;20025;-74
2023/06/19 00:49:35;;;;;;;14.90;10.43;;;;;;;;;;6269535;28;20027;-74
2023/06/19 00:52:36;;;;;;;16.00;10.10;;;;;;;;;;6267862;28;20317;-74
2023/06/19 00:55:37;;;;;;;14.57;9.87;;;;;;;;;;6268897;28;20068;-74
2023/06/19 00:58:38;;;;;;;15.77;10.40;;;;;;;;;;6269620;28;20021;-74
2023/06/19 01:01:39;;;;;;;14.13;10.43;;;;;;;;;;6270496;28;20029;-74
2023/06/19 01:04:41;;;;;;;14.13;10.07;;;;;;;;;;6276377;28;20060;-74
2023/06/19 01:07:41;;;;;;;;;;;;;;;;;;6275725;28;20021;-74
2023/06/19 01:10:47;;;;;;;16.53;11.30;;;;;;;;;;6269178;28;20397;-74
2023/06/19 01:13:50;;;;;;;16.00;11.18;;;;;;;;;;6262931;28;20288;-74
2023/06/19 01:16:51;;;;;;;16.67;11.90;;;;;;;;;;6263624;28;20029;-74
2023/06/19 01:19:51;;;;;;;18.85;12.32;;;;;;;;;;6269278;28;20025;-74
2023/06/19 01:22:56;;;;;;;17.90;12.00;;;;;;;;;;6274846;28;20462;-74
2023/06/19 01:25:56;;;;;;;16.92;11.73;;;;;;;;;;6269486;28;20061;-74
2023/06/19 01:28:56;;;;;;;17.23;11.18;;;;;;;;;;6272852;28;20025;-74
2023/06/19 01:32:04;;;;;;;15.67;11.30;;;;;;;;;;6269809;28;20021;-74
2023/06/19 01:35:05;;;;;;;14.75;10.00;;;;;;;;;;6271660;28;20134;-75
2023/06/19 01:38:07;;;;;;;17.60;11.63;;;;;;;;;;6270699;28;20032;-74
2023/06/19 01:41:08;;;;;;;14.25;10.15;;;;;;;;;;6269054;28;20111;-74
2023/06/19 01:44:08;;;;;;;16.17;10.90;;;;;;;;;;6266315;28;20025;-85
2023/06/19 01:47:09;;;;;;;14.50;10.38;;;;;;;;;;6269088;28;20816;-84
2023/06/19 01:50:10;;;;;;;13.35;9.73;;;;;;;;;;6272608;28;20016;-85
2023/06/19 01:53:10;;;;;;;14.77;10.00;;;;;;;;;;6268593;28;20059;-83
2023/06/19 01:56:11;;;;;;;13.30;9.35;;;;;;;;;;6270287;28;20044;-83
2023/06/19 01:59:11;;;;;;;12.87;9.50;;;;;;;;;;6270623;28;20685;-85
2023/06/19 02:02:11;;;;;;;14.73;10.45;;;;;;;;;;6272356;28;20845;-82
2023/06/19 02:05:11;;;;;;;15.03;9.50;;;;;;;;;;6268068;28;20021;-82
2023/06/19 02:08:12;;;;;;;13.97;9.10;;;;;;;;;;6263125;28;20013;-84
2023/06/19 02:11:12;;;;;;;15.03;10.40;;;;;;;;;;6260952;28;20044;-84
2023/06/19 02:14:12;;;;;;;13.87;9.77;;;;;;;;;;6265935;28;20072;-84
2023/06/19 02:17:12;;;;;;;16.53;11.40;;;;;;;;;;6268087;28;20471;-83
2023/06/19 02:20:12;;;;;;;15.13;10.63;;;;;;;;;;6269834;28;20025;-83
2023/06/19 02:23:13;;;;;;;20.50;12.73;;;;;;;;;;6270029;28;20022;-74
2023/06/19 02:26:14;;;;;;;17.07;11.40;;;;;;;;;;6268152;28;20029;-74
2023/06/19 02:29:14;;;;;;;15.55;11.27;;;;;;;;;;6272311;28;20071;-74
2023/06/19 02:32:14;;;;;;;15.52;10.10;;;;;;;;;;6267220;28;20027;-74
2023/06/19 02:35:15;;;;;;;15.15;10.90;;;;;;;;;;6267205;28;20447;-74
2023/06/19 02:38:15;;;;;;;17.07;10.83;;;;;;;;;;6267407;28;20044;-74
2023/06/19 02:41:15;;;;;;;18.43;10.93;;;;;;;;;;6267258;28;20025;-74
2023/06/19 02:44:16;;;;;;;17.15;11.25;;;;;;;;;;6267695;28;20021;-74
2023/06/19 02:47:16;;;;;;;13.93;10.83;;;;;;;;;;6267544;28;20111;-74
2023/06/19 02:50:16;;;;;;;19.23;11.90;;;;;;;;;;6249650;28;20021;-74
2023/06/19 02:53:16;;;;;;;17.58;11.88;;;;;;;;;;6268430;28;20104;-74
2023/06/19 02:56:16;;;;;;;21.60;12.17;;;;;;;;;;6268115;28;20039;-74
2023/06/19 02:59:17;;;;;;;18.53;12.03;;;;;;;;;;6249602;28;20033;-74
2023/06/19 03:02:17;;;;;;;14.38;10.93;;;;;;;;;;6267252;28;20140;-74
2023/06/19 03:05:17;;;;;;;17.97;12.13;;;;;;;;;;6246821;28;20028;-74
2023/06/19 03:08:17;;;;;;;17.45;11.52;;;;;;;;;;6266947;28;20028;-75
2023/06/19 03:11:18;;;;;;;18.50;11.73;;;;;;;;;;6249351;28;20482;-74
2023/06/19 03:14:18;;;;;;;16.90;11.90;;;;;;;;;;6265849;28;20083;-75
2023/06/19 03:17:18;;;;;;;21.42;13.35;;;;;;;;;;6267059;28;20029;-74
2023/06/19 03:20:18;;;;;;;22.23;13.47;;;;;;;;;;6261610;28;20025;-74
2023/06/19 03:23:19;;;;;;;21.50;14.23;;;;;;;;;;6267114;28;20574;-74
2023/06/19 03:26:20;;;;;;;17.90;12.97;;;;;;;;;;6262255;28;20456;-74
2023/06/19 03:29:20;;;;;;;23.60;14.67;;;;;;;;;;6272058;28;20017;-74
2023/06/19 03:32:20;;;;;;;18.00;13.77;;;;;;;;;;6267107;28;20017;-83
2023/06/19 03:35:20;;;;;;;22.40;14.15;;;;;;;;;;6266428;28;20021;-81
2023/06/19 03:38:20;;;;;;;25.15;14.95;;;;;;;;;;6266500;28;20033;-79
2023/06/19 03:41:21;;;;;;;19.53;13.17;;;;;;;;;;6266970;28;20112;-84
2023/06/19 03:44:21;;;;;;;19.23;12.87;;;;;;;;;;6266128;28;20024;-83
2023/06/19 03:47:21;;;;;;;12.93;9.20;;;;;;;;;;6266314;28;20017;-84
2023/06/19 03:50:21;;;;;;;14.00;10.60;;;;;;;;;;6266117;28;20025;-84
2023/06/19 03:53:22;;;;;;;17.38;11.20;;;;;;;;;;6266827;28;20013;-81
2023/06/19 03:56:22;;;;;;;18.07;12.00;;;;;;;;;;6266092;28;20032;-82
2023/06/19 03:59:22;;;;;;;19.93;12.47;;;;;;;;;;6266830;28;20028;-83
2023/06/19 04:02:22;;;;;;;22.77;16.00;;;;;;;;;;6270091;28;20013;-74
2023/06/19 04:05:23;;;;;;;23.92;15.70;;;;;;;;;;6273003;28;20733;-74
2023/06/19 04:08:24;;;;;;;20.87;14.30;;;;;;;;;;6268803;28;20008;-74
2023/06/19 04:11:25;;;;;;;22.27;16.08;;;;;;;;;;6266720;28;20025;-74
2023/06/19 04:14:25;;;;;;;21.63;15.10;;;;;;;;;;6266465;28;20147;-74
2023/06/19 04:17:25;;;;;;;24.27;16.40;;;;;;;;;;6271123;28;20438;-74
2023/06/19 04:20:26;;;;;;;23.57;14.40;;;;;;;;;;6281068;28;20017;-74
2023/06/19 04:23:26;;;;;;;21.03;14.40;;;;;;;;;;6273618;28;20099;-74
2023/06/19 04:26:26;;;;;;;21.20;15.07;;;;;;;;;;6274694;28;20176;-75
2023/06/19 04:29:26;;;;;;;20.35;14.75;;;;;;;;;;6271741;28;20025;-74
2023/06/19 04:32:26;;;;;;;19.10;12.43;;;;;;;;;;6270338;28;20059;-74
2023/06/19 04:35:27;;;;;;;25.13;14.70;;;;;;;;;;6274922;28;20799;-75
2023/06/19 04:38:27;;;;;;;23.50;14.80;;;;;;;;;;6273984;28;20032;-75
2023/06/19 04:41:27;;;;;;;24.83;15.73;;;;;;;;;;6269906;28;20035;-75
2023/06/19 04:44:29;;;;;;;22.20;15.87;;;;;;;;;;6266512;28;20029;-74
2023/06/19 04:47:30;;;;;;;17.50;13.18;;;;;;;;;;6264205;28;20013;-75
2023/06/19 04:50:30;;;;;;;24.80;14.63;;;;;;;;;;6269781;28;20485;-74
2023/06/19 04:53:30;;;;;;;21.85;14.10;;;;;;;;;;6269980;28;20048;-75
2023/06/19 04:56:30;;;;;;;22.73;14.73;;;;;;;;;;6251888;28;20020;-75
2023/06/19 04:59:30;;;;;;;23.23;14.47;;;;;;;;;;6275422;28;20043;-75
2023/06/19 05:02:31;;;;;;;24.02;14.80;;;;;;;;;;6262906;28;20048;-75
2023/06/19 05:05:32;;;;;;;22.37;14.30;;;;;;;;;;6269058;28;20168;-75
2023/06/19 05:08:32;;;;;;;21.63;13.82;;;;;;;;;;6248565;28;20048;-75
2023/06/19 05:11:32;;;;;;;18.40;14.27;;;;;;;;;;6266073;28;20086;-82
2023/06/19 05:14:33;;;;;;;19.37;13.60;;;;;;;;;;6267062;28;20116;-79
2023/06/19 05:17:33;;;;;;;19.35;14.05;;;;;;;;;;6269104;28;20016;-80
2023/06/19 05:20:33;;;;;;;25.25;15.77;;;;;;;;;;6268072;28;20071;-81
2023/06/19 05:23:33;;;;;;;18.50;12.70;;;;;;;;;;6268913;28;20094;-82
2023/06/19 05:26:33;;;;;;;19.17;13.50;;;;;;;;;;6267219;28;20059;-82
2023/06/19 05:29:34;;;;;;;19.87;12.77;;;;;;;;;;6267338;28;20047;-83
2023/06/19 05:32:34;;;;;;;20.75;14.65;;;;;;;;;;6269188;28;20020;-81
2023/06/19 05:35:34;;;;;;;19.43;13.17;;;;;;;;;;6252264;28;20474;-81
2023/06/19 05:38:34;;;;;;;18.50;13.97;;;;;;;;;;6264347;28;20028;-83
2023/06/19 05:41:35;;;;;;;19.43;12.93;;;;;;;;;;6274131;28;20024;-83
2023/06/19 05:44:35;;;;;;;16.48;12.77;;;;;;;;;;6268270;28;20017;-82
2023/06/19 05:47:35;;;;;;;17.70;11.33;;;;;;;;;;6268298;28;20036;-83
2023/06/19 05:50:35;;;;;;;19.87;12.63;;;;;;;;;;6266473;28;20542;-83
2023/06/19 05:53:35;;;;;;;17.03;12.43;;;;;;;;;;6265569;28;20850;-82
2023/06/19 05:56:36;;;;;;;19.65;13.23;;;;;;;;;;6268133;28;20017;-81
2023/06/19 05:59:36;;;;;;;16.67;11.23;;;;;;;;;;6262767;28;20492;-82
2023/06/19 06:02:36;;;;;;;15.05;10.73;;;;;;;;;;6266659;28;20021;-83
2023/06/19 06:05:36;;;;;;;19.90;11.60;;;;;;;;;;6270005;28;20130;-82
2023/06/19 06:08:37;;;;;;;15.17;11.30;;;;;;;;;;6268048;28;20017;-84
2023/06/19 06:11:37;;;;;;;15.20;10.95;;;;;;;;;;6266135;28;20013;-83
2023/06/19 06:14:38;;;;;;;15.65;11.13;;;;;;;;;;6260587;28;20049;-83
2023/06/19 06:17:38;;;;;;;16.27;11.27;;;;;;;;;;6267551;28;20075;-82
2023/06/19 06:20:38;;;;;;;16.93;10.70;;;;;;;;;;6266537;28;20043;-82
2023/06/19 06:23:40;;;;;;;13.80;9.82;;;;;;;;;;6266696;28;20425;-84
2023/06/19 06:26:41;;;;;;;15.18;10.65;;;;;;;;;;6261316;28;20030;-84
2023/06/19 06:29:41;;;;;;;14.73;9.95;;;;;;;;;;6258554;28;20411;-82
2023/06/19 06:32:41;;;;;;;13.53;9.60;;;;;;;;;;6266275;28;20017;-84
2023/06/19 06:35:42;;;;;;;15.20;10.20;;;;;;;;;;6258632;28;20029;-83
2023/06/19 06:38:42;;;;;;;13.10;9.30;;;;;;;;;;6259133;28;20147;-86
2023/06/19 06:41:42;;;;;;;15.52;10.45;;;;;;;;;;6262819;28;20025;-84
2023/06/19 06:44:42;;;;;;;16.00;11.00;;;;;;;;;;6262785;28;20056;-84
2023/06/19 06:47:42;;;;;;;15.20;11.13;;;;;;;;;;6285701;28;20031;-83
2023/06/19 06:50:43;;;;;;;16.30;11.17;;;;;;;;;;6273556;28;20029;-79
2023/06/19 06:53:43;;;;;;;12.55;9.15;;;;;;;;;;6286497;28;20029;-87
2023/06/19 06:56:47;;;;;;;;;;;;;;;;;;6273591;28;20524;-87
2023/06/19 06:59:47;;;;;;;13.40;8.55;;;;;;;;;;6269166;28;20296;-86
2023/06/19 07:02:50;;;;;;;;;;;;;;;;;;6267069;28;20036;-87
2023/06/19 07:05:50;;;;;;;12.40;8.50;;;;;;;;;;6266688;28;19967;-87
2023/06/19 07:08:50;;;;;;;;;;;;;;;;;;6266893;28;20024;-87
2023/06/19 07:11:50;;;;;;;13.80;8.65;;;;;;;;;;6266268;28;19931;-84
2023/06/19 07:14:50;;;;;;;;;;;;;;;;;;6266483;28;20056;-88
2023/06/19 07:17:50;;;;;;;10.10;7.78;;;;;;;;;;6267152;28;19904;-89
2023/06/19 07:20:51;;;;;;;;;;;;;;;;;;6265677;28;20487;-89
2023/06/19 07:23:51;;;;;;;12.93;8.63;;;;;;;;;;6267165;28;19951;-89
2023/06/19 07:26:51;;;;;;;12.43;7.83;;;;;;;;;;6268302;28;20028;-86
2023/06/19 07:29:51;;;;;;;;;;;;;;;;;;6267393;28;20103;-84
2023/06/19 07:32:51;;;;;;;10.98;7.35;;;;;;;;;;6263208;28;19916;-87
2023/06/19 07:35:51;;;;;;;;;;;;;;;;;;6267882;28;20029;-86
2023/06/19 07:38:52;;;;;;;11.10;6.30;;;;;;;;;;6266107;28;19913;-87
2023/06/19 07:41:52;;;;;;;;;;;;;;;;;;6267606;28;20021;-76
2023/06/19 07:44:52;;;;;;;6.95;5.30;;;;;;;;;;6265826;28;19913;-76
2023/06/19 07:47:53;;;;;;;;;;;;;;;;;;6266604;28;20017;-76
2023/06/19 07:50:54;;;;;;;8.85;5.20;;;;;;;;;;6266938;28;19935;-77
2023/06/19 07:53:54;;;;;;;6.17;4.77;;;;;;;;;;6273839;28;20414;-77
2023/06/19 07:56:54;;;;;;;8.20;4.80;;;;;;;;;;6270122;28;20271;-77
2023/06/19 07:59:54;;;;;;;8.20;5.30;;;;;;;;;;6272311;28;20032;-77
2023/06/19 08:02:55;;;;;;;8.37;5.67;;;;;;;;;;6272592;28;20352;-77
2023/06/19 08:05:56;;;;;;;11.30;5.72;;;;;;;;;;6270299;28;20052;-77
2023/06/19 08:08:56;;;;;;;9.25;5.88;;;;;;;;;;6269279;28;20024;-76
2023/06/19 08:11:57;;;;;;;9.40;6.63;;;;;;;;;;6268532;28;20402;-76
2023/06/19 08:14:57;;;;;;;10.38;6.38;;;;;;;;;;6267186;28;20128;-76
2023/06/19 08:17:57;;;;;;;11.87;6.97;;;;;;;;;;6265760;28;20064;-76
2023/06/19 08:20:58;;;;;;;9.70;5.90;;;;;;;;;;6270418;28;20055;-76
2023/06/19 08:23:58;;;;;;;9.73;5.63;;;;;;;;;;6268030;28;20498;-76
2023/06/19 08:26:59;;;;;;;8.20;5.85;;;;;;;;;;6266678;28;20091;-75
2023/06/19 08:29:59;;;;;;;6.57;5.40;;;;;;;;;;6266507;28;20352;-75
2023/06/19 08:32:59;;;;;;;8.23;6.00;;;;;;;;;;6267467;28;20048;-76
2023/06/19 08:35:59;;;;;;;9.93;5.93;;;;;;;;;;6264762;28;20471;-76
2023/06/19 08:38:59;;;;;;;9.30;6.43;;;;;;;;;;6258647;28;20098;-75
2023/06/19 08:42:00;;;;;;;9.77;5.53;;;;;;;;;;6271708;28;20391;-83
2023/06/19 08:45:00;;;;;;;7.17;5.40;;;;;;;;;;6251399;28;20017;-84
2023/06/19 08:48:03;;;;;;;8.85;6.18;;;;;;;;;;6274641;28;20067;-84
2023/06/19 08:51:06;;;;;;;7.85;5.47;;;;;;;;;;6268258;28;20024;-85
2023/06/19 08:54:07;;;;;;;10.35;5.20;;;;;;;;;;6285649;28;20437;-88
2023/06/19 08:57:09;;;;;;;8.05;5.80;;;;;;;;;;6278424;28;20067;-86
2023/06/19 09:00:10;;;;;;;7.82;5.47;;;;;;;;;;6279576;28;20056;-87
2023/06/19 09:03:10;;;;;;;8.68;5.38;;;;;;;;;;6279752;28;20025;-85
2023/06/19 09:06:10;;;;;;;7.70;5.13;;;;;;;;;;6276341;28;20009;-87
2023/06/19 09:09:13;;;;;;;9.27;5.73;;;;;;;;;;6273986;28;20017;-85
2023/06/19 09:12:14;;;;;;;8.85;5.75;;;;;;;;;;6259503;28;20096;-87
2023/06/19 09:15:14;;;;;;;;;;;;;;;;;;6284434;28;20017;-86
2023/06/19 09:18:14;;;;;;;10.95;5.38;;;;;;;;;;6276880;28;19959;-87
2023/06/19 09:21:14;;;;;;;;;;;;;;;;;;6272456;28;20482;-87
2023/06/19 09:24:15;;;;;;;8.50;5.43;;;;;;;;;;6268130;28;19916;-76
2023/06/19 09:27:17;;;;;;;;;;;;;;;;;;6271459;28;20094;-76
2023/06/19 09:30:18;;;;;;;7.43;6.10;;;;;;;;;;6272099;28;19915;-76
2023/06/19 09:33:18;;;;;;;8.93;5.73;;;;;;;;;;6271243;28;20028;-76
2023/06/19 09:36:18;;;;;;;8.00;5.40;;;;;;;;;;6270160;28;20406;-76
2023/06/19 09:39:19;;;;;;;7.37;5.13;;;;;;;;;;6276192;28;20101;-76
2023/06/19 09:42:23;;;;;;;6.18;5.18;;;;;;;;;;6274638;28;20048;-76
2023/06/19 09:45:26;;;;;;;11.32;6.50;;;;;;;;;;6272708;28;20028;-76
2023/06/19 09:48:32;;;;;;;8.40;5.30;;;;;;;;;;6260002;28;20026;-76
2023/06/19 09:51:36;;;;;;;7.63;5.10;;;;;;;;;;6264092;28;20546;-76
2023/06/19 09:54:37;;;;;;;8.05;5.10;;;;;;;;;;6271219;28;20024;-76
2023/06/19 09:57:38;;;;;;;9.95;5.85;;;;;;;;;;6265686;28;20033;-75
2023/06/19 10:00:39;;;;;;;8.23;6.18;;;;;;;;;;6271761;28;20600;-75
2023/06/19 10:03:40;;;;;;;;;;;;;;;;;;6277143;28;20047;-87
2023/06/19 10:06:44;;;;;;;12.40;6.40;;;;;;;;;;6277636;28;19912;-84
2023/06/19 10:10:04;;;;;;;7.75;4.97;;;;;;;;;;6262991;28;20052;-85
2023/06/19 10:13:12;;;;;;;7.68;5.50;;;;;;;;;;6272678;28;20072;-85
2023/06/19 10:16:19;;;;;;;10.25;5.07;;;;;;;;;;6251039;28;20036;-87
2023/06/19 10:19:22;;;;;;;8.88;5.45;;;;;;;;;;6280559;28;20058;-84
2023/06/19 10:22:22;;;;;;;9.00;5.07;;;;;;;;;;6274800;28;20013;-85
2023/06/19 10:25:28;;;;;;;6.27;4.57;;;;;;;;;;6275683;28;20099;-86
2023/06/19 10:28:29;;;;;;;7.53;4.47;;;;;;;;;;6260587;28;20051;-84
2023/06/19 10:31:30;;;;;;;6.88;4.95;;;;;;;;;;6257008;28;20028;-85
2023/06/19 10:34:33;;;;;;;7.70;5.33;;;;;;;;;;6268560;28;20437;-87
2023/06/19 10:37:34;;;;;;;11.00;5.78;;;;;;;;;;6266673;28;20037;-85
2023/06/19 10:40:36;;;;;;;6.47;4.83;;;;;;;;;;6267076;28;20013;-85
2023/06/19 10:43:36;;;;;;;8.38;4.88;;;;;;;;;;6264781;28;20017;-85
2023/06/19 10:46:38;;;;;;;8.43;5.03;;;;;;;;;;6255915;28;20029;-83
2023/06/19 10:49:38;;;;;;;7.10;5.18;;;;;;;;;;6274032;28;20371;-86
2023/06/19 10:52:40;;;;;;;9.70;5.60;;;;;;;;;;6271004;28;20021;-85
2023/06/19 10:55:40;;;;;;;8.15;5.57;;;;;;;;;;6270485;28;20017;-87
2023/06/19 10:58:41;;;;;;;10.88;6.05;;;;;;;;;;6267572;28;20047;-88
2023/06/19 11:01:42;;;;;;;7.10;5.55;;;;;;;;;;6265891;28;20023;-83
2023/06/19 11:04:42;;;;;;;7.43;5.90;;;;;;;;;;6267028;28;20111;-82
2023/06/19 11:07:43;;;;;;;10.77;5.30;;;;;;;;;;6266424;28;20005;-83
2023/06/19 11:10:43;;;;;;;8.38;6.07;;;;;;;;;;6266161;28;20255;-83
2023/06/19 11:13:43;;;;;;;8.87;5.57;;;;;;;;;;6248155;28;20029;-73
2023/06/19 11:16:47;;;;;;;9.77;5.53;;;;;;;;;;6266790;28;20071;-75
2023/06/19 11:19:47;;;;;;;8.05;5.32;;;;;;;;;;6267249;28;20017;-75
2023/06/19 11:22:48;;;;;;;9.17;5.53;;;;;;;;;;6269124;28;20105;-75
2023/06/19 11:25:48;;;;;;;11.40;5.35;;;;;;;;;;6269869;28;20797;-75
2023/06/19 11:28:49;;;;;;;7.40;4.73;;;;;;;;;;6267669;28;20075;-74
2023/06/19 11:31:49;;;;;;;9.30;4.55;;;;;;;;;;6274249;28;20698;-74
2023/06/19 11:34:51;;;;;;;6.05;3.75;;;;;;;;;;6275026;28;20535;-75
2023/06/19 11:37:51;;;;;;;10.38;5.40;;;;;;;;;;6279119;28;20534;-74
2023/06/19 11:40:52;;;;;;;9.27;4.90;;;;;;;;;;6271180;28;20025;-74
2023/06/19 11:43:57;;;;;;;7.22;5.13;;;;;;;;;;6254244;28;20483;-75
2023/06/19 11:47:00;;;;;;;8.07;4.40;;;;;;;;;;6271396;28;20027;-75
2023/06/19 11:50:03;;;;;;;9.48;5.05;;;;;;;;;;6270686;28;20067;-75
2023/06/19 11:53:03;;;;;;;6.53;4.63;;;;;;;;;;6268597;28;20005;-74
2023/06/19 11:56:03;;;;;;;6.03;4.07;;;;;;;;;;6271530;28;20021;-75
2023/06/19 11:59:04;;;;;;;6.70;3.73;;;;;;;;;;6265886;28;20048;-74
2023/06/19 12:02:04;;;;;;;8.18;3.53;;;;;;;;;;6274579;28;20028;-75
2023/06/19 12:05:05;;;;;;;6.88;3.90;;;;;;;;;;6276335;28;20056;-75
2023/06/19 12:08:06;;;;;;;4.45;3.70;;;;;;;;;;6271406;28;20485;-75
2023/06/19 12:11:09;;;;;;;7.25;4.05;;;;;;;;;;6270333;28;20021;-76
2023/06/19 12:14:09;;;;;;;6.45;4.40;;;;;;;;;;6271810;28;20548;-75
2023/06/19 12:17:10;;;;;;;5.30;3.42;;;;;;;;;;6268816;28;20024;-76
2023/06/19 12:20:10;;;;;;;3.85;3.15;;;;;;;;;;6267865;28;20390;-76
2023/06/19 12:23:10;;;;;;;6.97;4.15;;;;;;;;;;6268858;28;20105;-82
2023/06/19 12:26:11;;;;;;;5.05;3.42;;;;;;;;;;6269325;28;20028;-86
2023/06/19 12:29:11;;;;;;;5.45;3.97;;;;;;;;;;6280374;28;20561;-85
2023/06/19 12:32:11;;;;;;;6.50;4.10;;;;;;;;;;6267287;28;20020;-86
2023/06/19 12:35:11;;;;;;;5.38;4.25;;;;;;;;;;6269393;28;20099;-84
2023/06/19 12:38:11;;;;;;;7.30;4.27;;;;;;;;;;6252318;28;20024;-86
2023/06/19 12:41:12;;;;;;;4.83;3.80;;;;;;;;;;6270244;28;20138;-84
2023/06/19 12:44:12;;;;;;;4.50;3.90;;;;;;;;;;6268186;28;20263;-83
2023/06/19 12:47:13;;;;;;;6.25;4.15;;;;;;;;;;6268680;28;20025;-84
2023/06/19 12:50:13;;;;;;;7.43;3.85;;;;;;;;;;6269300;28;20455;-85
2023/06/19 12:53:13;;;;;;;4.77;3.73;;;;;;;;;;6269290;28;20024;-88
2023/06/19 12:56:13;;;;;;;4.57;3.70;;;;;;;;;;6262486;28;20511;-85
2023/06/19 12:59:14;;;;;;;4.87;3.93;;;;;;;;;;6265206;28;20012;-86
2023/06/19 13:02:14;;;;;;;5.63;4.13;;;;;;;;;;6270427;28;20052;-87
2023/06/19 13:05:14;;;;;;;7.82;4.07;;;;;;;;;;6269796;28;20082;-86
2023/06/19 13:08:15;;;;;;;4.47;3.73;;;;;;;;;;6269546;28;20483;-84
2023/06/19 13:11:15;;;;;;;5.50;3.83;;;;;;;;;;6269729;28;20262;-85
2023/06/19 13:14:15;;;;;;;5.97;4.15;;;;;;;;;;6269446;28;20044;-85
2023/06/19 13:17:15;;;;;;;5.43;3.90;;;;;;;;;;6267587;28;20095;-85
2023/06/19 13:20:16;;;;;;;4.77;3.77;;;;;;;;;;6266555;28;20024;-87
2023/06/19 13:23:16;;;;;;;6.00;4.10;;;;;;;;;;6269648;28;20056;-84
2023/06/19 13:26:16;;;;;;;5.00;3.75;;;;;;;;;;6266585;28;20159;-86
2023/06/19 13:29:17;;;;;;;5.63;4.43;;;;;;;;;;6268788;28;20032;-85
2023/06/19 13:32:18;;;;;;;5.88;3.80;;;;;;;;;;6277342;28;20017;-84
2023/06/19 13:35:18;;;;;;;4.83;3.47;;;;;;;;;;6270594;28;20498;-86
2023/06/19 13:38:18;;;;;;;5.00;3.87;;;;;;;;;;6270865;28;20052;-88
2023/06/19 13:41:18;;;;;;;6.30;4.00;;;;;;;;;;6269257;28;20023;-75
2023/06/19 13:44:18;;;;;;;4.40;3.97;;;;;;;;;;6265198;28;20024;-75
2023/06/19 13:47:19;;;;;;;5.33;4.17;;;;;;;;;;6268366;28;20276;-75
2023/06/19 13:50:19;;;;;;;5.90;4.00;;;;;;;;;;6264462;28;20024;-74
2023/06/19 13:53:21;;;;;;;5.77;4.03;;;;;;;;;;6268590;28;20498;-75
2023/06/19 13:56:23;;;;;;;9.88;4.10;;;;;;;;;;6275717;28;20291;-75
2023/06/19 13:59:24;;;;;;;5.32;4.35;;;;;;;;;;6268901;28;20083;-74
2023/06/19 14:02:24;;;;;;;7.15;3.65;;;;;;;;;;6262850;28;20158;-87
2023/06/19 14:05:26;;;;;;;4.13;3.47;;;;;;;;;;6274138;28;20017;-87
2023/06/19 14:08:26;;;;;;;7.32;4.43;;;;;;;;;;6271643;28;20027;-86
2023/06/19 14:11:28;;;;;;;4.20;3.75;;;;;;;;;;6268590;28;20016;-87
2023/06/19 14:14:29;;;;;;;4.10;3.70;;;;;;;;;;6270158;28;20048;-88
2023/06/19 14:17:29;;;;;;;9.32;4.68;;;;;;;;;;6268931;28;20021;-85
2023/06/19 14:20:29;;;;;;;15.60;4.77;;;;;;;;;;6269225;28;20048;-87
2023/06/19 14:23:30;;;;;;;7.32;3.65;;;;;;;;;;6269779;28;20017;-88
2023/06/19 14:26:31;;;;;;;6.38;3.60;;;;;;;;;;6251437;28;20021;-88
2023/06/19 14:29:31;;;;;;;5.03;4.33;;;;;;;;;;6270349;28;20070;-87
2023/06/19 14:32:31;;;;;;;6.17;4.97;;;;;;;;;;6265709;28;20017;-87
2023/06/19 14:35:31;;;;;;;4.90;4.35;;;;;;;;;;6268577;28;20120;-87
2023/06/19 14:38:33;;;;;;;8.95;4.00;;;;;;;;;;6268898;28;20033;-90
2023/06/19 14:41:33;;;;;;;5.18;3.67;;;;;;;;;;6268825;28;20673;-87
2023/06/19 14:44:33;;;;;;;5.50;4.13;;;;;;;;;;6249970;28;20025;-87
2023/06/19 14:47:34;;;;;;;4.53;3.77;;;;;;;;;;6266769;28;20021;-84
2023/06/19 14:50:35;;;;;;;5.47;3.58;;;;;;;;;;6265591;28;20017;-87
2023/06/19 14:53:35;;;;;;;4.88;3.85;;;;;;;;;;6263547;28;20017;-86
2023/06/19 14:56:35;;;;;;;5.77;4.17;;;;;;;;;;6267687;28;20088;-87
2023/06/19 14:59:35;;;;;;;5.80;4.30;;;;;;;;;;6247967;28;20017;-87
2023/06/19 15:02:36;;;;;;;5.43;3.63;;;;;;;;;;6270174;28;20509;-87
2023/06/19 15:05:36;;;;;;;3.63;3.30;;;;;;;;;;6277879;28;20013;-87
2023/06/19 15:08:38;;;;;;;5.00;4.38;;;;;;;;;;6266604;28;20490;-87
2023/06/19 15:11:39;;;;;;;7.97;3.70;;;;;;;;;;6265985;28;20022;-84
2023/06/19 15:14:40;;;;;;;5.65;3.67;;;;;;;;;;6269925;28;20076;-85
2023/06/19 15:17:41;;;;;;;4.20;3.65;;;;;;;;;;6266006;28;20013;-87
2023/06/19 15:20:42;;;;;;;6.60;4.50;;;;;;;;;;6270538;28;20040;-86
2023/06/19 15:23:42;;;;;;;8.90;4.20;;;;;;;;;;6267874;28;20096;-87
2023/06/19 15:26:43;;;;;;;5.33;3.53;;;;;;;;;;6267886;28;20782;-85
2023/06/19 15:29:43;;;;;;;6.13;3.85;;;;;;;;;;6265819;28;20017;-87
2023/06/19 15:32:43;;;;;;;9.00;3.70;;;;;;;;;;6265403;28;20006;-85
2023/06/19 15:35:43;;;;;;;4.93;4.10;;;;;;;;;;6270274;28;20053;-86
2023/06/19 15:38:44;;;;;;;4.53;3.97;;;;;;;;;;6267782;28;20039;-84
2023/06/19 15:41:45;;;;;;;4.80;3.78;;;;;;;;;;6248289;28;20063;-86
2023/06/19 15:44:45;;;;;;;4.35;3.80;;;;;;;;;;6265195;28;20598;-86
2023/06/19 15:47:45;;;;;;;8.23;4.25;;;;;;;;;;6254330;28;20029;-83
2023/06/19 15:50:46;;;;;;;5.73;4.53;;;;;;;;;;6270782;28;20021;-86
2023/06/19 15:53:46;;;;;;;5.93;4.43;;;;;;;;;;6272574;28;20048;-85
2023/06/19 15:56:46;;;;;;;4.93;3.93;;;;;;;;;;6268538;28;20352;-89
2023/06/19 15:59:51;;;;;;;5.53;4.20;;;;;;;;;;6266351;28;20033;-89
2023/06/19 16:02:51;;;;;;;5.00;4.50;;;;;;;;;;6266773;28;20096;-85
2023/06/19 16:05:51;;;;;;;4.07;3.67;;;;;;;;;;6268328;28;20029;-86
2023/06/19 16:08:56;;;;;;;5.10;3.97;;;;;;;;;;6260842;28;20037;-90
2023/06/19 16:11:56;;;;;;;7.70;4.05;;;;;;;;;;6271719;28;20044;-84
2023/06/19 16:14:56;;;;;;;8.23;4.10;;;;;;;;;;6267392;28;20196;-87
2023/06/19 16:17:57;;;;;;;4.90;4.30;;;;;;;;;;6274670;28;20371;-87
2023/06/19 16:20:57;;;;;;;5.97;4.13;;;;;;;;;;6268105;28;20455;-88
2023/06/19 16:23:57;;;;;;;8.27;4.18;;;;;;;;;;6266761;28;20044;-87
2023/06/19 16:26:57;;;;;;;4.88;4.18;;;;;;;;;;6275698;28;20390;-88
2023/06/19 16:29:57;;;;;;;5.83;4.20;;;;;;;;;;6269675;28;20009;-89
2023/06/19 16:32:58;;;;;;;6.30;4.07;;;;;;;;;;6265335;28;20025;-88
2023/06/19 16:35:58;;;;;;;5.33;3.40;;;;;;;;;;6264243;28;20029;-89
2023/06/19 16:38:58;;;;;;;;;;;;;;;;;;6253225;28;20033;-87
2023/06/19 16:41:58;;;;;;;4.05;3.65;;;;;;;;;;6270861;28;19928;-88
2023/06/19 16:44:59;;;;;;;;;;;;;;;;;;6273295;28;20379;-90
2023/06/19 16:47:59;;;;;;;;;;;;;;;;;;6271753;28;19944;-89
2023/06/19 16:50:59;;;;;;;5.25;4.15;;;;;;;;;;6273952;28;20009;-91
2023/06/19 16:53:59;;;;;;;4.50;4.00;;;;;;;;;;6276318;28;20398;-85
2023/06/19 16:56:59;;;;;;;4.60;3.93;;;;;;;;;;6270886;28;20024;-86
2023/06/19 16:59:59;;;;;;;7.67;3.93;;;;;;;;;;6271702;28;20067;-85
2023/06/19 17:03:00;;;;;;;4.20;3.63;;;;;;;;;;6273532;28;20063;-88
2023/06/19 17:06:00;;;;;;;4.47;3.30;;;;;;;;;;6272111;28;20029;-82
2023/06/19 17:09:00;;;;;;;6.83;4.00;;;;;;;;;;6270827;28;20440;-84
2023/06/19 17:12:00;;;;;;;4.73;4.27;;;;;;;;;;6271989;28;20033;-85
2023/06/19 17:15:01;;;;;;;4.50;3.88;;;;;;;;;;6271809;28;20283;-85
2023/06/19 17:18:01;;;;;;;;;;;;;;;;;;6266950;28;20033;-90
2023/06/19 17:21:01;;;;;;;4.55;4.10;;;;;;;;;;6249152;28;19951;-89
2023/06/19 17:24:01;;;;;;;6.20;4.17;;;;;;;;;;6272852;28;20033;-87
2023/06/19 17:27:01;;;;;;;6.33;4.23;;;;;;;;;;6273102;28;20123;-88
2023/06/19 17:30:02;;;;;;;5.57;4.53;;;;;;;;;;6274182;28;20043;-87
2023/06/19 17:33:02;;;;;;;7.95;4.72;;;;;;;;;;6268008;28;20074;-75
2023/06/19 17:36:03;;;;;;;8.70;4.60;;;;;;;;;;6266358;28;20035;-75
2023/06/19 17:39:03;;;;;;;6.10;4.43;;;;;;;;;;6262261;28;20053;-75
2023/06/19 17:42:03;;;;;;;6.10;4.47;;;;;;;;;;6266633;28;20029;-75
2023/06/19 17:45:04;;;;;;;10.23;4.95;;;;;;;;;;6266240;28;20108;-75
2023/06/19 17:48:04;;;;;;;6.53;4.68;;;;;;;;;;6267036;28;20116;-75
2023/06/19 17:51:04;;;;;;;6.45;4.57;;;;;;;;;;6268371;28;20039;-75
2023/06/19 17:54:04;;;;;;;6.07;5.10;;;;;;;;;;6264163;28;20479;-75
2023/06/19 17:57:05;;;;;;;9.03;6.03;;;;;;;;;;6268054;28;20142;-75